createdAt,value
2023-05-05T00:00:21.345Z,607.00
2023-05-05T00:01:21.421Z,608.00
2023-05-05T00:02:21.485Z,606.00
2023-05-05T00:03:21.520Z,607.00
2023-05-05T00:04:21.586Z,607.00
2023-05-05T00:05:21.579Z,608.00
2023-05-05T00:06:21.648Z,603.00
2023-05-05T00:07:21.708Z,604.00
2023-05-05T00:08:21.738Z,604.00
2023-05-05T00:09:21.752Z,604.00
2023-05-05T00:10:21.834Z,605.00
2023-05-05T00:11:21.906Z,610.00
2023-05-05T00:12:21.909Z,611.00
2023-05-05T00:13:21.961Z,610.00
2023-05-05T00:14:22.072Z,611.00
2023-05-05T00:15:22.065Z,611.00
2023-05-05T00:16:22.187Z,608.00
2023-05-05T00:17:22.200Z,608.00
2023-05-05T00:18:22.210Z,606.00
2023-05-05T00:19:22.228Z,608.00
2023-05-05T00:20:22.300Z,610.00
2023-05-05T00:21:22.376Z,609.00
2023-05-05T00:22:22.491Z,608.00
2023-05-05T00:23:22.457Z,609.00
2023-05-05T00:24:22.486Z,608.00
2023-05-05T00:25:22.553Z,613.00
2023-05-05T00:26:22.627Z,614.00
2023-05-05T00:27:22.674Z,615.00
2023-05-05T00:28:22.731Z,616.00
2023-05-05T00:29:22.731Z,616.00
2023-05-05T00:30:22.780Z,613.00
2023-05-05T00:31:22.919Z,611.00
2023-05-05T00:32:22.936Z,610.00
2023-05-05T00:33:22.952Z,608.00
2023-05-05T00:34:23.022Z,608.00
2023-05-05T00:35:23.052Z,606.00
2023-05-05T00:36:23.121Z,605.00
2023-05-05T00:37:23.133Z,604.00
2023-05-05T00:38:23.172Z,602.00
2023-05-05T00:39:23.231Z,600.00
2023-05-05T00:40:23.307Z,602.00
2023-05-05T00:41:23.327Z,602.00
2023-05-05T00:42:23.390Z,600.00
2023-05-05T00:43:23.421Z,600.00
2023-05-05T00:44:23.481Z,602.00
2023-05-05T00:45:23.538Z,600.00
2023-05-05T00:46:23.662Z,601.00
2023-05-05T00:47:23.640Z,601.00
2023-05-05T00:48:23.673Z,598.00
2023-05-05T00:49:23.790Z,598.00
2023-05-05T00:50:23.778Z,595.00
2023-05-05T00:51:23.817Z,596.00
2023-05-05T00:52:23.899Z,594.00
2023-05-05T00:53:23.953Z,596.00
2023-05-05T00:54:23.992Z,598.00
2023-05-05T00:55:24.036Z,600.00
2023-05-05T00:56:24.091Z,600.00
2023-05-05T00:57:24.492Z,599.00
2023-05-05T00:58:24.202Z,601.00
2023-05-05T00:59:24.222Z,602.00
2023-05-05T01:00:24.241Z,601.00
2023-05-05T01:01:24.332Z,602.00
2023-05-05T01:02:24.344Z,602.00
2023-05-05T01:03:24.483Z,600.00
2023-05-05T01:04:24.458Z,601.00
2023-05-05T01:05:24.503Z,601.00
2023-05-05T01:06:24.943Z,602.00
2023-05-05T01:07:24.570Z,600.00
2023-05-05T01:08:24.649Z,601.00
2023-05-05T01:09:24.674Z,600.00
2023-05-05T01:10:25.031Z,598.00
2023-05-05T01:11:24.810Z,599.00
2023-05-05T01:12:24.818Z,599.00
2023-05-05T01:13:24.912Z,600.00
2023-05-05T01:14:24.928Z,602.00
2023-05-05T01:15:24.954Z,605.00
2023-05-05T01:16:25.109Z,604.00
2023-05-05T01:17:25.094Z,603.00
2023-05-05T01:18:25.129Z,602.00
2023-05-05T01:19:25.195Z,603.00
2023-05-05T01:20:25.236Z,605.00
2023-05-05T01:21:25.271Z,606.00
2023-05-05T01:22:25.337Z,606.00
2023-05-05T01:23:25.376Z,607.00
2023-05-05T01:24:25.448Z,605.00
2023-05-05T01:25:25.472Z,606.00
2023-05-05T01:26:25.542Z,606.00
2023-05-05T01:27:25.971Z,605.00
2023-05-05T01:28:25.646Z,606.00
2023-05-05T01:29:25.737Z,605.00
2023-05-05T01:30:25.749Z,604.00
2023-05-05T01:31:25.802Z,606.00
2023-05-05T01:32:25.914Z,605.00
2023-05-05T01:33:25.885Z,604.00
2023-05-05T01:34:25.933Z,603.00
2023-05-05T01:35:26.002Z,602.00
2023-05-05T01:36:26.057Z,601.00
2023-05-05T01:37:26.101Z,600.00
2023-05-05T01:38:26.121Z,599.00
2023-05-05T01:39:26.179Z,596.00
2023-05-05T01:40:26.217Z,596.00
2023-05-05T01:41:26.278Z,595.00
2023-05-05T01:42:26.323Z,596.00
2023-05-05T01:43:26.384Z,598.00
2023-05-05T01:44:26.432Z,598.00
2023-05-05T01:45:26.481Z,598.00
2023-05-05T01:46:26.521Z,598.00
2023-05-05T01:47:26.943Z,600.00
2023-05-05T01:48:26.671Z,600.00
2023-05-05T01:49:26.675Z,600.00
2023-05-05T01:50:26.742Z,599.00
2023-05-05T01:51:26.800Z,600.00
2023-05-05T01:52:26.848Z,600.00
2023-05-05T01:53:26.904Z,602.00
2023-05-05T01:54:27.003Z,600.00
2023-05-05T01:55:26.998Z,600.00
2023-05-05T01:56:27.073Z,600.00
2023-05-05T01:57:27.128Z,601.00
2023-05-05T01:58:27.152Z,602.00
2023-05-05T01:59:27.247Z,601.00
2023-05-05T02:00:27.292Z,600.00
2023-05-05T02:01:27.403Z,599.00
2023-05-05T02:02:27.488Z,599.00
2023-05-05T02:03:27.546Z,599.00
2023-05-05T02:04:28.451Z,601.00
2023-05-05T02:05:27.535Z,603.00
2023-05-05T02:06:27.610Z,605.00
2023-05-05T02:07:28.018Z,605.00
2023-05-05T02:08:27.753Z,603.00
2023-05-05T02:09:27.765Z,602.00
2023-05-05T02:10:27.836Z,603.00
2023-05-05T02:11:27.854Z,604.00
2023-05-05T02:12:27.946Z,604.00
2023-05-05T02:13:28.037Z,607.00
2023-05-05T02:14:28.032Z,604.00
2023-05-05T02:15:28.091Z,602.00
2023-05-05T02:16:28.177Z,604.00
2023-05-05T02:17:28.205Z,607.00
2023-05-05T02:18:28.266Z,607.00
2023-05-05T02:19:28.277Z,607.00
2023-05-05T02:20:28.347Z,605.00
2023-05-05T02:21:28.396Z,604.00
2023-05-05T02:22:28.468Z,606.00
2023-05-05T02:23:28.504Z,606.00
2023-05-05T02:24:28.564Z,605.00
2023-05-05T02:25:28.591Z,606.00
2023-05-05T02:26:28.658Z,605.00
2023-05-05T02:27:28.715Z,606.00
2023-05-05T02:28:28.784Z,604.00
2023-05-05T02:29:28.818Z,604.00
2023-05-05T02:30:28.893Z,604.00
2023-05-05T02:31:29.049Z,605.00
2023-05-05T02:32:29.014Z,605.00
2023-05-05T02:33:29.020Z,606.00
2023-05-05T02:34:29.069Z,603.00
2023-05-05T02:35:29.126Z,602.00
2023-05-05T02:36:29.189Z,602.00
2023-05-05T02:37:29.240Z,601.00
2023-05-05T02:38:29.300Z,602.00
2023-05-05T02:39:29.362Z,605.00
2023-05-05T02:40:29.408Z,609.00
2023-05-05T02:41:29.396Z,608.00
2023-05-05T02:42:29.393Z,606.00
2023-05-05T02:43:29.397Z,607.00
2023-05-05T02:44:29.386Z,605.00
2023-05-05T02:45:29.344Z,606.00
2023-05-05T02:46:29.373Z,606.00
2023-05-05T02:47:29.356Z,609.00
2023-05-05T02:48:29.361Z,609.00
2023-05-05T02:49:29.373Z,606.00
2023-05-05T02:50:29.406Z,606.00
2023-05-05T02:51:29.480Z,605.00
2023-05-05T02:52:29.520Z,605.00
2023-05-05T02:53:29.591Z,604.00
2023-05-05T02:54:29.665Z,604.00
2023-05-05T02:55:29.700Z,605.00
2023-05-05T02:56:29.767Z,606.00
2023-05-05T02:57:29.837Z,606.00
2023-05-05T02:58:29.882Z,608.00
2023-05-05T02:59:29.929Z,608.00
2023-05-05T03:00:29.994Z,610.00
2023-05-05T03:01:30.089Z,610.00
2023-05-05T03:02:30.190Z,612.00
2023-05-05T03:03:30.264Z,611.00
2023-05-05T03:04:30.236Z,614.00
2023-05-05T03:05:30.293Z,610.00
2023-05-05T03:06:30.351Z,608.00
2023-05-05T03:07:30.404Z,608.00
2023-05-05T03:08:30.502Z,611.00
2023-05-05T03:09:30.543Z,613.00
2023-05-05T03:10:30.597Z,610.00
2023-05-05T03:11:30.668Z,610.00
2023-05-05T03:12:30.743Z,610.00
2023-05-05T03:13:30.779Z,611.00
2023-05-05T03:14:32.831Z,611.00
2023-05-05T03:15:31.044Z,610.00
2023-05-05T03:16:31.098Z,611.00
2023-05-05T03:17:31.192Z,609.00
2023-05-05T03:18:31.260Z,611.00
2023-05-05T03:19:31.281Z,610.00
2023-05-05T03:20:31.338Z,607.00
2023-05-05T03:21:31.396Z,609.00
2023-05-05T03:22:31.478Z,610.00
2023-05-05T03:23:31.547Z,610.00
2023-05-05T03:24:31.592Z,611.00
2023-05-05T03:25:31.638Z,610.00
2023-05-05T03:26:31.699Z,608.00
2023-05-05T03:27:31.758Z,605.00
2023-05-05T03:28:31.827Z,603.00
2023-05-05T03:29:31.879Z,605.00
2023-05-05T03:30:31.950Z,605.00
2023-05-05T03:31:32.070Z,605.00
2023-05-05T03:32:32.097Z,605.00
2023-05-05T03:33:32.190Z,607.00
2023-05-05T03:34:32.285Z,606.00
2023-05-05T03:35:32.263Z,607.00
2023-05-05T03:36:32.346Z,608.00
2023-05-05T03:37:32.374Z,607.00
2023-05-05T03:38:32.441Z,606.00
2023-05-05T03:39:32.507Z,605.00
2023-05-05T03:40:42.971Z,607.00
2023-05-05T03:41:33.552Z,608.00
2023-05-05T03:42:32.568Z,610.00
2023-05-05T03:43:32.542Z,611.00
2023-05-05T03:44:32.540Z,611.00
2023-05-05T03:45:32.620Z,612.00
2023-05-05T03:46:32.588Z,609.00
2023-05-05T03:47:32.566Z,607.00
2023-05-05T03:48:32.510Z,607.00
2023-05-05T03:49:32.577Z,608.00
2023-05-05T03:50:32.622Z,606.00
2023-05-05T03:51:32.705Z,607.00
2023-05-05T03:52:32.760Z,607.00
2023-05-05T03:53:32.817Z,603.00
2023-05-05T03:54:32.887Z,601.00
2023-05-05T03:55:32.968Z,599.00
2023-05-05T03:56:33.026Z,601.00
2023-05-05T03:57:33.050Z,601.00
2023-05-05T03:58:33.143Z,599.00
2023-05-05T03:59:33.166Z,596.00
2023-05-05T04:00:33.237Z,598.00
2023-05-05T04:01:33.461Z,600.00
2023-05-05T04:02:33.388Z,597.00
2023-05-05T04:03:33.604Z,596.00
2023-05-05T04:04:33.525Z,597.00
2023-05-05T04:05:33.580Z,596.00
2023-05-05T04:06:33.597Z,598.00
2023-05-05T04:07:33.715Z,596.00
2023-05-05T04:08:33.724Z,595.00
2023-05-05T04:09:33.792Z,595.00
2023-05-05T04:10:33.881Z,595.00
2023-05-05T04:11:33.939Z,595.00
2023-05-05T04:12:34.023Z,598.00
2023-05-05T04:13:34.073Z,601.00
2023-05-05T04:14:34.118Z,601.00
2023-05-05T04:15:34.149Z,600.00
2023-05-05T04:16:34.244Z,599.00
2023-05-05T04:17:34.292Z,598.00
2023-05-05T04:18:34.334Z,597.00
2023-05-05T04:19:34.407Z,597.00
2023-05-05T04:20:34.456Z,599.00
2023-05-05T04:21:34.529Z,598.00
2023-05-05T04:22:34.624Z,599.00
2023-05-05T04:23:34.670Z,600.00
2023-05-05T04:24:34.743Z,600.00
2023-05-05T04:25:34.823Z,600.00
2023-05-05T04:26:34.831Z,600.00
2023-05-05T04:27:34.916Z,601.00
2023-05-05T04:28:34.963Z,597.00
2023-05-05T04:29:35.023Z,598.00
2023-05-05T04:30:35.097Z,599.00
2023-05-05T04:31:35.173Z,600.00
2023-05-05T04:32:35.290Z,598.00
2023-05-05T04:33:35.272Z,598.00
2023-05-05T04:34:35.339Z,600.00
2023-05-05T04:35:35.399Z,601.00
2023-05-05T04:36:35.442Z,603.00
2023-05-05T04:37:35.542Z,604.00
2023-05-05T04:38:35.601Z,606.00
2023-05-05T04:39:35.629Z,606.00
2023-05-05T04:40:35.703Z,607.00
2023-05-05T04:41:35.783Z,606.00
2023-05-05T04:42:35.824Z,606.00
2023-05-05T04:43:35.894Z,608.00
2023-05-05T04:44:35.938Z,606.00
2023-05-05T04:45:36.008Z,606.00
2023-05-05T04:46:36.173Z,605.00
2023-05-05T04:47:36.169Z,606.00
2023-05-05T04:48:36.205Z,606.00
2023-05-05T04:49:36.249Z,605.00
2023-05-05T04:50:36.356Z,607.00
2023-05-05T04:51:36.374Z,605.00
2023-05-05T04:52:37.018Z,606.00
2023-05-05T04:53:36.508Z,605.00
2023-05-05T04:54:36.579Z,604.00
2023-05-05T04:55:36.633Z,601.00
2023-05-05T04:56:36.675Z,602.00
2023-05-05T04:57:36.737Z,600.00
2023-05-05T04:58:36.853Z,601.00
2023-05-05T04:59:36.877Z,601.00
2023-05-05T05:00:36.947Z,602.00
2023-05-05T05:01:38.623Z,602.00
2023-05-05T05:02:37.139Z,603.00
2023-05-05T05:03:37.335Z,602.00
2023-05-05T05:04:37.222Z,604.00
2023-05-05T05:05:37.308Z,604.00
2023-05-05T05:06:37.333Z,602.00
2023-05-05T05:07:37.400Z,603.00
2023-05-05T05:08:37.443Z,602.00
2023-05-05T05:09:37.546Z,600.00
2023-05-05T05:10:37.539Z,597.00
2023-05-05T05:11:37.610Z,597.00
2023-05-05T05:12:37.737Z,597.00
2023-05-05T05:13:37.735Z,597.00
2023-05-05T05:14:37.775Z,596.00
2023-05-05T05:15:37.891Z,596.00
2023-05-05T05:16:37.945Z,594.00
2023-05-05T05:17:38.024Z,594.00
2023-05-05T05:18:38.013Z,593.00
2023-05-05T05:19:38.069Z,594.00
2023-05-05T05:20:38.093Z,596.00
2023-05-05T05:21:38.129Z,596.00
2023-05-05T05:22:38.181Z,598.00
2023-05-05T05:23:38.263Z,598.00
2023-05-05T05:24:38.278Z,600.00
2023-05-05T05:25:38.490Z,600.00
2023-05-05T05:26:38.387Z,600.00
2023-05-05T05:27:38.430Z,600.00
2023-05-05T05:28:38.492Z,604.00
2023-05-05T05:29:38.588Z,604.00
2023-05-05T05:30:38.593Z,602.00
2023-05-05T05:31:38.617Z,603.00
2023-05-05T05:32:39.643Z,602.00
2023-05-05T05:33:38.700Z,600.00
2023-05-05T05:34:38.741Z,700.00
2023-05-05T05:35:38.829Z,656.00
2023-05-05T05:36:38.820Z,652.00
2023-05-05T05:37:39.597Z,685.00
2023-05-05T05:38:38.885Z,703.00
2023-05-05T05:39:40.173Z,712.00
2023-05-05T05:40:38.941Z,800.00
2023-05-05T05:41:39.051Z,860.00
2023-05-05T05:42:39.052Z,846.00
2023-05-05T05:43:39.030Z,836.00
2023-05-05T05:44:39.159Z,834.00
2023-05-05T05:45:39.244Z,906.00
2023-05-05T05:46:39.295Z,1004.00
2023-05-05T05:47:39.221Z,971.00
2023-05-05T05:48:39.197Z,912.00
2023-05-05T05:49:39.209Z,895.00
2023-05-05T05:50:39.261Z,885.00
2023-05-05T05:51:39.276Z,874.00
2023-05-05T05:52:39.277Z,861.00
2023-05-05T05:53:39.316Z,850.00
2023-05-05T05:54:39.388Z,841.00
2023-05-05T05:55:39.368Z,836.00
2023-05-05T05:56:39.385Z,826.00
2023-05-05T05:57:39.386Z,813.00
2023-05-05T05:58:39.405Z,805.00
2023-05-05T05:59:39.471Z,798.00
2023-05-05T06:00:39.460Z,779.00
2023-05-05T06:01:39.460Z,770.00
2023-05-05T06:02:39.761Z,762.00
2023-05-05T06:03:39.735Z,755.00
2023-05-05T06:04:39.519Z,752.00
2023-05-05T06:05:39.543Z,746.00
2023-05-05T06:06:39.616Z,746.00
2023-05-05T06:07:39.567Z,745.00
2023-05-05T06:08:40.099Z,745.00
2023-05-05T06:09:39.618Z,744.00
2023-05-05T06:10:39.822Z,742.00
2023-05-05T06:11:39.600Z,739.00
2023-05-05T06:12:39.632Z,734.00
2023-05-05T06:13:39.591Z,725.00
2023-05-05T06:14:39.603Z,719.00
2023-05-05T06:15:39.648Z,716.00
2023-05-05T06:16:39.639Z,712.00
2023-05-05T06:17:39.635Z,708.00
2023-05-05T06:18:40.247Z,704.00
2023-05-05T06:19:39.626Z,701.00
2023-05-05T06:20:39.601Z,695.00
2023-05-05T06:21:40.622Z,689.00
2023-05-05T06:22:39.623Z,684.00
2023-05-05T06:23:39.628Z,682.00
2023-05-05T06:24:39.627Z,681.00
2023-05-05T06:25:39.665Z,673.00
2023-05-05T06:26:40.595Z,661.00
2023-05-05T06:27:39.660Z,652.00
2023-05-05T06:28:40.077Z,654.00
2023-05-05T06:29:39.583Z,647.00
2023-05-05T06:30:39.596Z,635.00
2023-05-05T06:31:39.823Z,638.00
2023-05-05T06:32:39.673Z,635.00
2023-05-05T06:33:39.660Z,620.00
2023-05-05T06:34:39.686Z,619.00
2023-05-05T06:35:39.634Z,623.00
2023-05-05T06:36:39.694Z,643.00
2023-05-05T06:37:39.669Z,704.00
2023-05-05T06:38:40.102Z,736.00
2023-05-05T06:39:39.665Z,752.00
2023-05-05T06:40:39.673Z,764.00
2023-05-05T06:41:39.799Z,746.00
2023-05-05T06:42:39.640Z,733.00
2023-05-05T06:43:39.655Z,730.00
2023-05-05T06:44:39.694Z,725.00
2023-05-05T06:45:39.691Z,718.00
2023-05-05T06:46:39.702Z,713.00
2023-05-05T06:47:40.658Z,707.00
2023-05-05T06:48:39.675Z,698.00
2023-05-05T06:49:39.806Z,696.00
2023-05-05T06:50:39.726Z,685.00
2023-05-05T06:51:42.761Z,658.00
2023-05-05T06:52:39.694Z,640.00
2023-05-05T06:53:39.726Z,617.00
2023-05-05T06:54:39.698Z,606.00
2023-05-05T06:55:39.716Z,606.00
2023-05-05T06:56:39.740Z,604.00
2023-05-05T06:57:39.657Z,603.00
2023-05-05T06:58:39.672Z,600.00
2023-05-05T06:59:39.683Z,598.00
2023-05-05T07:00:39.693Z,599.00
2023-05-05T07:01:39.620Z,604.00
2023-05-05T07:02:39.651Z,607.00
2023-05-05T07:03:39.658Z,604.00
2023-05-05T07:04:39.637Z,601.00
2023-05-05T07:05:39.604Z,602.00
2023-05-05T07:06:39.615Z,600.00
2023-05-05T07:07:39.668Z,595.00
2023-05-05T07:08:39.664Z,591.00
2023-05-05T07:09:39.575Z,589.00
2023-05-05T07:10:39.575Z,590.00
2023-05-05T07:11:39.620Z,587.00
2023-05-05T07:12:39.634Z,581.00
2023-05-05T07:13:39.637Z,579.00
2023-05-05T07:14:39.556Z,578.00
2023-05-05T07:15:39.522Z,579.00
2023-05-05T07:16:39.639Z,580.00
2023-05-05T07:17:39.534Z,580.00
2023-05-05T07:18:39.517Z,577.00
2023-05-05T07:19:39.601Z,574.00
2023-05-05T07:20:39.499Z,573.00
2023-05-05T07:21:39.617Z,571.00
2023-05-05T07:22:39.505Z,570.00
2023-05-05T07:23:39.498Z,564.00
2023-05-05T07:24:39.482Z,557.00
2023-05-05T07:25:39.460Z,557.00
2023-05-05T07:26:39.528Z,556.00
2023-05-05T07:27:39.534Z,554.00
2023-05-05T07:28:39.633Z,553.00
2023-05-05T07:29:39.444Z,553.00
2023-05-05T07:30:39.464Z,553.00
2023-05-05T07:31:39.456Z,554.00
2023-05-05T07:32:39.488Z,759.00
2023-05-05T07:33:39.629Z,718.00
2023-05-05T07:34:39.425Z,720.00
2023-05-05T07:35:39.445Z,737.00
2023-05-05T07:36:39.431Z,738.00
2023-05-05T07:37:39.418Z,756.00
2023-05-05T07:38:39.536Z,713.00
2023-05-05T07:39:39.398Z,701.00
2023-05-05T07:40:39.374Z,724.00
2023-05-05T07:41:39.391Z,733.00
2023-05-05T07:42:39.363Z,733.00
2023-05-05T07:43:39.681Z,731.00
2023-05-05T07:44:39.334Z,730.00
2023-05-05T07:45:39.362Z,736.00
2023-05-05T07:46:39.342Z,740.00
2023-05-05T07:47:39.443Z,742.00
2023-05-05T07:48:39.329Z,734.00
2023-05-05T07:49:39.382Z,737.00
2023-05-05T07:50:39.368Z,740.00
2023-05-05T07:51:39.309Z,743.00
2023-05-05T07:53:39.320Z,748.00
2023-05-05T07:54:39.265Z,747.00
2023-05-05T07:55:39.295Z,753.00
2023-05-05T07:56:39.300Z,752.00
2023-05-05T07:57:39.333Z,755.00
2023-05-05T07:58:39.242Z,773.00
2023-05-05T07:59:39.311Z,786.00
2023-05-05T08:00:39.282Z,794.00
2023-05-05T08:01:39.244Z,800.00
2023-05-05T08:02:39.348Z,804.00
2023-05-05T08:03:39.452Z,803.00
2023-05-05T08:04:39.648Z,800.00
2023-05-05T08:05:39.310Z,801.00
2023-05-05T08:06:39.354Z,804.00
2023-05-05T08:07:39.478Z,798.00
2023-05-05T08:08:39.420Z,792.00
2023-05-05T08:09:39.500Z,794.00
2023-05-05T08:10:39.562Z,804.00
2023-05-05T08:11:39.594Z,827.00
2023-05-05T08:12:39.680Z,826.00
2023-05-05T08:13:39.671Z,827.00
2023-05-05T08:14:39.722Z,836.00
2023-05-05T08:15:39.908Z,835.00
2023-05-05T08:16:39.786Z,833.00
2023-05-05T08:17:39.844Z,844.00
2023-05-05T08:18:39.888Z,847.00
2023-05-05T08:19:39.929Z,838.00
2023-05-05T08:20:40.116Z,839.00
2023-05-05T08:21:40.002Z,876.00
2023-05-05T08:22:40.054Z,874.00
2023-05-05T08:23:40.087Z,878.00
2023-05-05T08:24:40.163Z,887.00
2023-05-05T08:25:40.184Z,948.00
2023-05-05T08:26:40.198Z,924.00
2023-05-05T08:27:40.220Z,870.00
2023-05-05T08:28:40.240Z,816.00
2023-05-05T08:29:40.313Z,807.00
2023-05-05T08:30:40.370Z,750.00
2023-05-05T08:31:40.520Z,760.00
2023-05-05T08:32:40.497Z,777.00
2023-05-05T08:33:40.487Z,797.00
2023-05-05T08:34:40.623Z,788.00
2023-05-05T08:35:40.580Z,779.00
2023-05-05T08:36:40.631Z,734.00
2023-05-05T08:37:40.667Z,718.00
2023-05-05T08:38:40.748Z,695.00
2023-05-05T08:39:40.843Z,681.00
2023-05-05T08:40:40.873Z,691.00
2023-05-05T08:41:40.892Z,699.00
2023-05-05T08:42:40.946Z,692.00
2023-05-05T08:43:40.989Z,691.00
2023-05-05T08:44:41.270Z,691.00
2023-05-05T08:45:41.100Z,696.00
2023-05-05T08:46:41.320Z,733.00
2023-05-05T08:47:41.269Z,762.00
2023-05-05T08:48:41.252Z,768.00
2023-05-05T08:49:41.336Z,770.00
2023-05-05T08:50:41.359Z,764.00
2023-05-05T08:51:41.397Z,756.00
2023-05-05T08:52:41.596Z,758.00
2023-05-05T08:53:41.566Z,764.00
2023-05-05T08:54:41.580Z,768.00
2023-05-05T08:55:41.584Z,754.00
2023-05-05T08:56:41.649Z,716.00
2023-05-05T08:57:41.674Z,719.00
2023-05-05T08:58:41.730Z,726.00
2023-05-05T08:59:41.819Z,731.00
2023-05-05T09:00:41.806Z,728.00
2023-05-05T09:01:41.893Z,725.00
2023-05-05T09:02:41.962Z,720.00
2023-05-05T09:03:42.292Z,714.00
2023-05-05T09:04:41.947Z,708.00
2023-05-05T09:05:41.995Z,711.00
2023-05-05T09:06:42.006Z,713.00
2023-05-05T09:07:42.036Z,716.00
2023-05-05T09:08:42.083Z,722.00
2023-05-05T09:09:42.138Z,728.00
2023-05-05T09:10:42.203Z,730.00
2023-05-05T09:11:42.177Z,730.00
2023-05-05T09:12:42.291Z,727.00
2023-05-05T09:13:42.243Z,731.00
2023-05-05T09:14:42.285Z,748.00
2023-05-05T09:15:42.301Z,753.00
2023-05-05T09:16:42.350Z,757.00
2023-05-05T09:17:42.428Z,754.00
2023-05-05T09:18:42.398Z,714.00
2023-05-05T09:19:42.465Z,712.00
2023-05-05T09:20:42.435Z,737.00
2023-05-05T09:21:42.466Z,764.00
2023-05-05T09:22:42.555Z,761.00
2023-05-05T09:23:42.528Z,780.00
2023-05-05T09:24:42.562Z,796.00
2023-05-05T09:25:42.593Z,795.00
2023-05-05T09:26:42.595Z,799.00
2023-05-05T09:27:42.636Z,795.00
2023-05-05T09:28:43.557Z,789.00
2023-05-05T09:29:43.173Z,791.00
2023-05-05T09:30:42.731Z,798.00
2023-05-05T09:31:42.750Z,918.00
2023-05-05T09:32:42.870Z,864.00
2023-05-05T09:33:42.840Z,882.00
2023-05-05T09:34:42.863Z,881.00
2023-05-05T09:35:42.902Z,802.00
2023-05-05T09:36:42.876Z,713.00
2023-05-05T09:37:42.943Z,653.00
2023-05-05T09:38:42.936Z,627.00
2023-05-05T09:39:43.680Z,629.00
2023-05-05T09:40:42.998Z,622.00
2023-05-05T09:41:43.053Z,731.00
2023-05-05T09:42:43.094Z,805.00
2023-05-05T09:43:43.074Z,690.00
2023-05-05T09:44:43.187Z,649.00
2023-05-05T09:45:43.149Z,645.00
2023-05-05T09:46:43.300Z,702.00
2023-05-05T09:47:43.266Z,641.00
2023-05-05T09:48:43.301Z,748.00
2023-05-05T09:49:43.281Z,609.00
2023-05-05T09:50:43.336Z,605.00
2023-05-05T09:51:43.448Z,620.00
2023-05-05T09:52:43.379Z,605.00
2023-05-05T09:53:43.410Z,603.00
2023-05-05T09:54:43.495Z,565.00
2023-05-05T09:55:43.613Z,574.00
2023-05-05T09:56:43.555Z,574.00
2023-05-05T09:57:43.625Z,579.00
2023-05-05T09:58:43.663Z,584.00
2023-05-05T09:59:43.675Z,597.00
2023-05-05T10:00:43.719Z,621.00
2023-05-05T10:01:43.885Z,580.00
2023-05-05T10:02:43.829Z,586.00
2023-05-05T10:03:43.849Z,570.00
2023-05-05T10:04:44.008Z,567.00
2023-05-05T10:05:43.943Z,539.00
2023-05-05T10:06:44.164Z,546.00
2023-05-05T10:07:44.075Z,554.00
2023-05-05T10:08:44.096Z,549.00
2023-05-05T10:09:44.123Z,545.00
2023-05-05T10:10:44.162Z,567.00
2023-05-05T10:11:44.239Z,589.00
2023-05-05T10:12:44.284Z,568.00
2023-05-05T10:13:44.255Z,576.00
2023-05-05T10:14:44.297Z,574.00
2023-05-05T10:15:44.403Z,563.00
2023-05-05T10:16:44.444Z,565.00
2023-05-05T10:17:57.896Z,633.00
2023-05-05T10:18:45.436Z,629.00
2023-05-05T10:19:44.429Z,626.00
2023-05-05T10:20:44.432Z,633.00
2023-05-05T10:21:44.446Z,624.00
2023-05-05T10:22:44.454Z,623.00
2023-05-05T10:23:44.420Z,629.00
2023-05-05T10:24:44.498Z,631.00
2023-05-05T10:25:44.415Z,641.00
2023-05-05T10:26:44.382Z,701.00
2023-05-05T10:27:44.419Z,643.00
2023-05-05T10:28:44.415Z,645.00
2023-05-05T10:29:44.362Z,662.00
2023-05-05T10:30:44.452Z,669.00
2023-05-05T10:31:44.378Z,677.00
2023-05-05T10:33:44.411Z,691.00
2023-05-05T10:34:44.480Z,692.00
2023-05-05T10:35:44.368Z,701.00
2023-05-05T10:36:44.351Z,705.00
2023-05-05T10:37:44.386Z,703.00
2023-05-05T10:38:44.348Z,685.00
2023-05-05T10:39:44.414Z,632.00
2023-05-05T10:40:44.374Z,629.00
2023-05-05T10:41:44.332Z,639.00
2023-05-05T10:42:44.473Z,646.00
2023-05-05T10:43:44.681Z,652.00
2023-05-05T10:44:45.189Z,660.00
2023-05-05T10:45:44.353Z,673.00
2023-05-05T10:46:45.244Z,672.00
2023-05-05T10:47:44.357Z,666.00
2023-05-05T10:48:44.354Z,656.00
2023-05-05T10:49:44.700Z,642.00
2023-05-05T10:50:44.278Z,627.00
2023-05-05T10:51:44.278Z,580.00
2023-05-05T10:52:44.266Z,575.00
2023-05-05T10:53:44.359Z,580.00
2023-05-05T10:54:44.260Z,688.00
2023-05-05T10:55:44.301Z,727.00
2023-05-05T10:56:44.278Z,762.00
2023-05-05T10:57:44.243Z,782.00
2023-05-05T10:58:59.038Z,811.00
2023-05-05T10:59:45.273Z,835.00
2023-05-05T11:00:44.263Z,854.00
2023-05-05T11:01:44.212Z,874.00
2023-05-05T11:02:44.279Z,904.00
2023-05-05T11:03:44.242Z,926.00
2023-05-05T11:04:44.211Z,948.00
2023-05-05T11:05:45.211Z,965.00
2023-05-05T11:06:44.186Z,980.00
2023-05-05T11:07:44.209Z,994.00
2023-05-05T11:08:44.195Z,1010.00
2023-05-05T11:09:44.190Z,1021.00
2023-05-05T11:10:44.166Z,1034.00
2023-05-05T11:11:44.211Z,1055.00
2023-05-05T11:12:44.725Z,1070.00
2023-05-05T11:13:44.179Z,1086.00
2023-05-05T11:14:44.181Z,1099.00
2023-05-05T11:15:44.146Z,1122.00
2023-05-05T11:16:44.172Z,1145.00
2023-05-05T11:17:44.139Z,1157.00
2023-05-05T11:18:44.124Z,1164.00
2023-05-05T11:19:44.174Z,1169.00
2023-05-05T11:20:44.210Z,1167.00
2023-05-05T11:21:44.202Z,1159.00
2023-05-05T11:22:44.205Z,1143.00
2023-05-05T11:23:45.231Z,1124.00
2023-05-05T11:24:44.236Z,1117.00
2023-05-05T11:25:45.188Z,1117.00
2023-05-05T11:26:44.300Z,1117.00
2023-05-05T11:27:44.418Z,1114.00
2023-05-05T11:28:44.352Z,1107.00
2023-05-05T11:29:44.371Z,1099.00
2023-05-05T11:30:45.245Z,1097.00
2023-05-05T11:31:44.398Z,1093.00
2023-05-05T11:32:44.467Z,1091.00
2023-05-05T11:33:44.473Z,1084.00
2023-05-05T11:34:44.486Z,1082.00
2023-05-05T11:35:44.514Z,1080.00
2023-05-05T11:36:44.527Z,1078.00
2023-05-05T11:37:44.594Z,1075.00
2023-05-05T11:38:44.668Z,1071.00
2023-05-05T11:39:44.645Z,1073.00
2023-05-05T11:40:44.665Z,1073.00
2023-05-05T11:41:44.693Z,1071.00
2023-05-05T11:42:44.728Z,1067.00
2023-05-05T11:43:44.824Z,1065.00
2023-05-05T11:44:44.776Z,1061.00
2023-05-05T11:45:44.800Z,1057.00
2023-05-05T11:46:44.923Z,1051.00
2023-05-05T11:47:44.924Z,1049.00
2023-05-05T11:48:44.926Z,1046.00
2023-05-05T11:49:44.953Z,1043.00
2023-05-05T11:50:45.019Z,1041.00
2023-05-05T11:51:45.016Z,1036.00
2023-05-05T11:52:45.085Z,1035.00
2023-05-05T11:53:45.121Z,1035.00
2023-05-05T11:54:45.144Z,1031.00
2023-05-05T11:55:45.206Z,1031.00
2023-05-05T11:56:45.204Z,1032.00
2023-05-05T11:57:45.246Z,1029.00
2023-05-05T11:58:45.298Z,1026.00
2023-05-05T11:59:45.806Z,1026.00
2023-05-05T12:00:45.349Z,1022.00
2023-05-05T12:01:45.394Z,1020.00
2023-05-05T12:02:45.511Z,1017.00
2023-05-05T12:03:45.960Z,1018.00
2023-05-05T12:04:45.563Z,1019.00
2023-05-05T12:05:45.640Z,1016.00
2023-05-05T12:06:45.617Z,1016.00
2023-05-05T12:07:45.635Z,1015.00
2023-05-05T12:08:45.694Z,1013.00
2023-05-05T12:09:45.807Z,1011.00
2023-05-05T12:10:45.767Z,1004.00
2023-05-05T12:11:45.839Z,1003.00
2023-05-05T12:12:45.870Z,1000.00
2023-05-05T12:13:45.940Z,996.00
2023-05-05T12:14:45.958Z,995.00
2023-05-05T12:15:45.997Z,994.00
2023-05-05T12:16:46.030Z,993.00
2023-05-05T12:17:46.241Z,993.00
2023-05-05T12:18:46.141Z,993.00
2023-05-05T12:19:46.175Z,992.00
2023-05-05T12:20:46.177Z,992.00
2023-05-05T12:21:46.226Z,993.00
2023-05-05T12:22:46.289Z,997.00
2023-05-05T12:23:46.340Z,997.00
2023-05-05T12:24:46.372Z,997.00
2023-05-05T12:25:46.369Z,993.00
2023-05-05T12:26:46.403Z,991.00
2023-05-05T12:27:46.489Z,986.00
2023-05-05T12:28:46.587Z,982.00